MAPA DE AEROPUERTO

INFORMACIÓN METAR y TAF


Deprecated: The each() function is deprecated. This message will be suppressed on further calls in /home/customer/www/clickair-va.com/public_html/VAM/vam/helpers/get_metar.php on line 20
METAR FOR FPST
ADDS - METARS form results

(0315 UTC 25 May 2022)
Data provider http://aviationweather.gov/metar/data/
 
Forecast for: FPST (SAO TOME IL/SALA, ST)
Text: TAF FPST 242200Z 2500/2606 17010KT 9999 SCT020 BKN040
Forecast period: 0000 to 0200 UTC 25 May 2022
Forecast type: FROM: standard forecast or significant change
Winds: from the S (170 degrees) at 12 MPH (10 knots; 5.1 m/s)
Visibility: 6 or more miles (10+ km)
Ceiling: 4000 feet AGL
Clouds: scattered clouds at 2000 feet AGL
broken clouds at 4000 feet AGL
Weather: no significant weather forecast for this period
Text: BECMG 2502/2506 FEW022CB
Forecast period: 0200 UTC 25 May 2022 to 0600 UTC 26 May 2022
Forecast type: BECOMING: Conditions expected to become as follows by 0600 UTC 25 May 2022
Winds: from the S (170 degrees) at 12 MPH (10 knots; 5.1 m/s)
Visibility: 6 or more miles (10+ km)
Ceiling: at least 12,000 feet AGL
Clouds: few clouds at 2200 feet AGL
Weather: no significant weather forecast for this period